sensor_id;sensor_type;location;lat;lon;timestamp;temperature;humidity
48994;DHT22;34804;49.214;12.276;2022-11-15T00:00:56;1.20;93.50
48994;DHT22;34804;49.214;12.276;2022-11-15T00:03:25;1.10;93.50
48994;DHT22;34804;49.214;12.276;2022-11-15T00:05:52;1.20;94.10
48994;DHT22;34804;49.214;12.276;2022-11-15T00:08:19;1.20;94.00
48994;DHT22;34804;49.214;12.276;2022-11-15T00:10:57;1.20;93.90
48994;DHT22;34804;49.214;12.276;2022-11-15T00:13:24;1.20;93.70
48994;DHT22;34804;49.214;12.276;2022-11-15T00:15:51;1.30;94.00
48994;DHT22;34804;49.214;12.276;2022-11-15T00:18:18;1.20;93.30
48994;DHT22;34804;49.214;12.276;2022-11-15T00:20:45;1.20;93.30
48994;DHT22;34804;49.214;12.276;2022-11-15T00:23:11;1.20;93.40
48994;DHT22;34804;49.214;12.276;2022-11-15T00:25:38;1.20;93.30
48994;DHT22;34804;49.214;12.276;2022-11-15T00:28:05;1.20;93.30
48994;DHT22;34804;49.214;12.276;2022-11-15T00:30:32;1.30;93.30
48994;DHT22;34804;49.214;12.276;2022-11-15T00:33:05;1.30;93.10
48994;DHT22;34804;49.214;12.276;2022-11-15T00:35:33;1.30;93.10
48994;DHT22;34804;49.214;12.276;2022-11-15T00:38:01;1.20;93.20
48994;DHT22;34804;49.214;12.276;2022-11-15T00:40:28;1.20;93.20
48994;DHT22;34804;49.214;12.276;2022-11-15T00:42:56;1.20;93.10
48994;DHT22;34804;49.214;12.276;2022-11-15T00:45:23;1.20;93.10
48994;DHT22;34804;49.214;12.276;2022-11-15T00:47:50;1.20;93.30
48994;DHT22;34804;49.214;12.276;2022-11-15T00:50:17;1.20;93.20
48994;DHT22;34804;49.214;12.276;2022-11-15T00:52:44;1.20;93.00
48994;DHT22;34804;49.214;12.276;2022-11-15T00:55:17;1.20;93.40
48994;DHT22;34804;49.214;12.276;2022-11-15T00:57:44;1.10;93.20
48994;DHT22;34804;49.214;12.276;2022-11-15T01:00:12;1.10;93.20
48994;DHT22;34804;49.214;12.276;2022-11-15T01:02:39;1.00;93.10
48994;DHT22;34804;49.214;12.276;2022-11-15T01:05:06;0.90;93.50
48994;DHT22;34804;49.214;12.276;2022-11-15T01:07:33;0.90;93.50
48994;DHT22;34804;49.214;12.276;2022-11-15T01:10:00;0.90;93.60
48994;DHT22;34804;49.214;12.276;2022-11-15T01:12:27;0.90;93.90
48994;DHT22;34804;49.214;12.276;2022-11-15T01:14:54;0.80;94.10
48994;DHT22;34804;49.214;12.276;2022-11-15T01:17:21;0.80;94.30
48994;DHT22;34804;49.214;12.276;2022-11-15T01:19:48;0.80;94.40
48994;DHT22;34804;49.214;12.276;2022-11-15T01:22:15;0.80;94.50
48994;DHT22;34804;49.214;12.276;2022-11-15T01:24:42;0.80;94.60
48994;DHT22;34804;49.214;12.276;2022-11-15T01:27:09;0.90;94.70
48994;DHT22;34804;49.214;12.276;2022-11-15T01:29:36;1.00;94.80
48994;DHT22;34804;49.214;12.276;2022-11-15T01:32:03;1.00;94.70
48994;DHT22;34804;49.214;12.276;2022-11-15T01:34:29;1.00;94.70
48994;DHT22;34804;49.214;12.276;2022-11-15T01:36:56;1.00;94.70
48994;DHT22;34804;49.214;12.276;2022-11-15T01:39:23;1.00;94.60
48994;DHT22;34804;49.214;12.276;2022-11-15T01:41:50;1.00;94.60
48994;DHT22;34804;49.214;12.276;2022-11-15T01:44:47;0.90;94.40
48994;DHT22;34804;49.214;12.276;2022-11-15T01:47:31;1.00;94.60
48994;DHT22;34804;49.214;12.276;2022-11-15T01:50:00;1.00;94.70
48994;DHT22;34804;49.214;12.276;2022-11-15T01:52:30;1.10;94.60
48994;DHT22;34804;49.214;12.276;2022-11-15T01:55:18;1.10;94.40
48994;DHT22;34804;49.214;12.276;2022-11-15T01:57:49;1.10;94.40
48994;DHT22;34804;49.214;12.276;2022-11-15T02:00:17;1.10;94.40
48994;DHT22;34804;49.214;12.276;2022-11-15T02:02:44;1.10;94.40
48994;DHT22;34804;49.214;12.276;2022-11-15T02:05:11;1.10;94.50
48994;DHT22;34804;49.214;12.276;2022-11-15T02:07:38;1.00;94.40
48994;DHT22;34804;49.214;12.276;2022-11-15T02:10:14;1.10;94.70
48994;DHT22;34804;49.214;12.276;2022-11-15T02:12:43;1.10;94.70
48994;DHT22;34804;49.214;12.276;2022-11-15T02:15:11;1.10;94.70
48994;DHT22;34804;49.214;12.276;2022-11-15T02:18:46;1.10;94.60
48994;DHT22;34804;49.214;12.276;2022-11-15T02:20:58;1.10;94.80
48994;DHT22;34804;49.214;12.276;2022-11-15T02:23:31;1.10;94.80
48994;DHT22;34804;49.214;12.276;2022-11-15T02:31:53;1.30;95.10
48994;DHT22;34804;49.214;12.276;2022-11-15T02:34:36;1.40;94.90
48994;DHT22;34804;49.214;12.276;2022-11-15T02:40:22;1.40;94.70
48994;DHT22;34804;49.214;12.276;2022-11-15T02:43:00;1.40;94.40
48994;DHT22;34804;49.214;12.276;2022-11-15T02:45:55;1.30;94.40
48994;DHT22;34804;49.214;12.276;2022-11-15T02:48:23;1.30;94.40
48994;DHT22;34804;49.214;12.276;2022-11-15T02:50:52;1.30;94.20
48994;DHT22;34804;49.214;12.276;2022-11-15T02:53:24;1.30;94.30
48994;DHT22;34804;49.214;12.276;2022-11-15T02:55:51;1.30;94.50
48994;DHT22;34804;49.214;12.276;2022-11-15T03:04:37;1.20;94.30
48994;DHT22;34804;49.214;12.276;2022-11-15T03:07:28;1.10;94.30
48994;DHT22;34804;49.214;12.276;2022-11-15T03:10:10;1.20;94.70
48994;DHT22;34804;49.214;12.276;2022-11-15T03:12:53;1.20;94.40
48994;DHT22;34804;49.214;12.276;2022-11-15T03:18:02;1.10;94.80
48994;DHT22;34804;49.214;12.276;2022-11-15T03:20:31;1.10;94.80
48994;DHT22;34804;49.214;12.276;2022-11-15T03:23:08;1.10;94.80
48994;DHT22;34804;49.214;12.276;2022-11-15T03:25:40;1.10;94.80
48994;DHT22;34804;49.214;12.276;2022-11-15T03:28:10;1.10;94.80
48994;DHT22;34804;49.214;12.276;2022-11-15T03:30:39;1.10;94.90
48994;DHT22;34804;49.214;12.276;2022-11-15T03:33:07;1.10;94.90
48994;DHT22;34804;49.214;12.276;2022-11-15T03:35:40;1.10;94.80
48994;DHT22;34804;49.214;12.276;2022-11-15T03:38:19;1.20;95.00
48994;DHT22;34804;49.214;12.276;2022-11-15T03:43:44;1.30;95.00
48994;DHT22;34804;49.214;12.276;2022-11-15T03:46:20;1.30;95.00
48994;DHT22;34804;49.214;12.276;2022-11-15T03:48:53;1.30;94.70
48994;DHT22;34804;49.214;12.276;2022-11-15T03:51:20;1.30;94.80
48994;DHT22;34804;49.214;12.276;2022-11-15T03:53:47;1.30;94.80
48994;DHT22;34804;49.214;12.276;2022-11-15T03:56:14;1.40;94.80
48994;DHT22;34804;49.214;12.276;2022-11-15T03:58:41;1.30;94.40
48994;DHT22;34804;49.214;12.276;2022-11-15T04:01:07;1.20;94.40
48994;DHT22;34804;49.214;12.276;2022-11-15T04:03:34;1.20;94.30
48994;DHT22;34804;49.214;12.276;2022-11-15T04:06:01;1.10;94.40
48994;DHT22;34804;49.214;12.276;2022-11-15T04:08:28;1.10;94.30
48994;DHT22;34804;49.214;12.276;2022-11-15T04:10:55;1.00;94.30
48994;DHT22;34804;49.214;12.276;2022-11-15T04:13:22;1.00;94.40
48994;DHT22;34804;49.214;12.276;2022-11-15T04:15:49;1.00;94.50
48994;DHT22;34804;49.214;12.276;2022-11-15T04:18:15;1.00;94.60
48994;DHT22;34804;49.214;12.276;2022-11-15T04:20:42;0.90;94.40
48994;DHT22;34804;49.214;12.276;2022-11-15T04:23:28;0.90;94.60
48994;DHT22;34804;49.214;12.276;2022-11-15T04:26:34;0.90;94.80
48994;DHT22;34804;49.214;12.276;2022-11-15T04:29:00;0.90;94.70
48994;DHT22;34804;49.214;12.276;2022-11-15T04:31:46;1.00;95.10
48994;DHT22;34804;49.214;12.276;2022-11-15T04:34:12;1.10;95.30
48994;DHT22;34804;49.214;12.276;2022-11-15T04:36:39;1.20;95.20
48994;DHT22;34804;49.214;12.276;2022-11-15T04:39:24;1.10;94.90
48994;DHT22;34804;49.214;12.276;2022-11-15T04:41:51;1.00;94.60
48994;DHT22;34804;49.214;12.276;2022-11-15T04:44:18;0.90;94.30
48994;DHT22;34804;49.214;12.276;2022-11-15T04:46:45;0.80;94.40
48994;DHT22;34804;49.214;12.276;2022-11-15T04:49:11;0.80;94.70
48994;DHT22;34804;49.214;12.276;2022-11-15T04:51:38;0.80;94.70
48994;DHT22;34804;49.214;12.276;2022-11-15T04:54:05;0.80;94.60
48994;DHT22;34804;49.214;12.276;2022-11-15T04:56:32;0.80;94.70
48994;DHT22;34804;49.214;12.276;2022-11-15T04:58:58;0.80;94.70
48994;DHT22;34804;49.214;12.276;2022-11-15T05:01:25;0.70;94.50
48994;DHT22;34804;49.214;12.276;2022-11-15T05:03:52;0.60;94.50
48994;DHT22;34804;49.214;12.276;2022-11-15T05:06:37;0.60;94.70
48994;DHT22;34804;49.214;12.276;2022-11-15T05:09:04;0.60;94.70
48994;DHT22;34804;49.214;12.276;2022-11-15T05:11:31;0.60;94.80
48994;DHT22;34804;49.214;12.276;2022-11-15T05:13:58;0.50;94.90
48994;DHT22;34804;49.214;12.276;2022-11-15T05:16:25;0.50;94.90
48994;DHT22;34804;49.214;12.276;2022-11-15T05:18:53;0.40;94.90
48994;DHT22;34804;49.214;12.276;2022-11-15T05:21:20;0.40;95.00
48994;DHT22;34804;49.214;12.276;2022-11-15T05:23:47;0.40;95.10
48994;DHT22;34804;49.214;12.276;2022-11-15T05:26:16;0.30;95.00
48994;DHT22;34804;49.214;12.276;2022-11-15T05:28:43;0.20;95.00
48994;DHT22;34804;49.214;12.276;2022-11-15T05:31:12;0.30;95.30
48994;DHT22;34804;49.214;12.276;2022-11-15T05:33:40;0.40;95.40
48994;DHT22;34804;49.214;12.276;2022-11-15T05:38:45;0.40;95.30
48994;DHT22;34804;49.214;12.276;2022-11-15T05:41:13;0.40;95.20
48994;DHT22;34804;49.214;12.276;2022-11-15T05:43:42;0.30;95.10
48994;DHT22;34804;49.214;12.276;2022-11-15T05:46:10;0.40;95.20
48994;DHT22;34804;49.214;12.276;2022-11-15T05:48:38;0.40;95.20
48994;DHT22;34804;49.214;12.276;2022-11-15T05:51:07;0.40;95.30
48994;DHT22;34804;49.214;12.276;2022-11-15T05:53:35;0.40;95.20
48994;DHT22;34804;49.214;12.276;2022-11-15T05:56:04;0.40;95.30
48994;DHT22;34804;49.214;12.276;2022-11-15T05:58:36;0.50;95.30
48994;DHT22;34804;49.214;12.276;2022-11-15T06:01:04;0.50;95.20
48994;DHT22;34804;49.214;12.276;2022-11-15T06:03:31;0.40;95.10
48994;DHT22;34804;49.214;12.276;2022-11-15T06:05:58;0.50;95.10
48994;DHT22;34804;49.214;12.276;2022-11-15T06:08:25;0.50;95.20
48994;DHT22;34804;49.214;12.276;2022-11-15T06:10:52;0.60;95.20
48994;DHT22;34804;49.214;12.276;2022-11-15T06:13:18;0.60;95.20
48994;DHT22;34804;49.214;12.276;2022-11-15T06:15:45;0.60;94.90
48994;DHT22;34804;49.214;12.276;2022-11-15T06:18:12;0.50;94.50
48994;DHT22;34804;49.214;12.276;2022-11-15T06:20:39;0.40;94.60
48994;DHT22;34804;49.214;12.276;2022-11-15T06:23:06;0.30;94.30
48994;DHT22;34804;49.214;12.276;2022-11-15T06:25:32;0.40;94.70
48994;DHT22;34804;49.214;12.276;2022-11-15T06:27:59;0.40;94.70
48994;DHT22;34804;49.214;12.276;2022-11-15T06:30:26;0.40;94.30
48994;DHT22;34804;49.214;12.276;2022-11-15T06:33:04;0.30;94.30
48994;DHT22;34804;49.214;12.276;2022-11-15T06:35:33;0.40;94.50
48994;DHT22;34804;49.214;12.276;2022-11-15T06:38:06;0.40;94.80
48994;DHT22;34804;49.214;12.276;2022-11-15T06:40:37;0.50;94.90
48994;DHT22;34804;49.214;12.276;2022-11-15T06:43:05;0.50;94.70
48994;DHT22;34804;49.214;12.276;2022-11-15T06:45:32;0.60;94.90
48994;DHT22;34804;49.214;12.276;2022-11-15T06:47:59;0.60;94.50
48994;DHT22;34804;49.214;12.276;2022-11-15T06:50:26;0.50;94.40
48994;DHT22;34804;49.214;12.276;2022-11-15T06:52:53;0.50;94.30
48994;DHT22;34804;49.214;12.276;2022-11-15T06:55:20;0.40;94.20
48994;DHT22;34804;49.214;12.276;2022-11-15T06:57:51;0.40;94.10
48994;DHT22;34804;49.214;12.276;2022-11-15T07:00:20;0.30;94.20
48994;DHT22;34804;49.214;12.276;2022-11-15T07:02:47;0.30;94.50
48994;DHT22;34804;49.214;12.276;2022-11-15T07:05:14;0.40;94.60
48994;DHT22;34804;49.214;12.276;2022-11-15T07:07:41;0.40;94.70
48994;DHT22;34804;49.214;12.276;2022-11-15T07:10:09;0.30;94.30
48994;DHT22;34804;49.214;12.276;2022-11-15T07:12:35;0.40;94.30
48994;DHT22;34804;49.214;12.276;2022-11-15T07:15:02;0.40;94.40
48994;DHT22;34804;49.214;12.276;2022-11-15T07:17:29;0.40;94.60
48994;DHT22;34804;49.214;12.276;2022-11-15T07:19:56;0.50;94.60
48994;DHT22;34804;49.214;12.276;2022-11-15T07:22:23;0.60;94.40
48994;DHT22;34804;49.214;12.276;2022-11-15T07:24:50;0.60;94.30
48994;DHT22;34804;49.214;12.276;2022-11-15T07:27:16;0.50;93.90
48994;DHT22;34804;49.214;12.276;2022-11-15T07:29:43;0.60;94.10
48994;DHT22;34804;49.214;12.276;2022-11-15T07:32:10;0.60;94.20
48994;DHT22;34804;49.214;12.276;2022-11-15T07:34:37;0.60;94.00
48994;DHT22;34804;49.214;12.276;2022-11-15T07:37:04;0.60;93.90
48994;DHT22;34804;49.214;12.276;2022-11-15T07:39:31;0.60;94.30
48994;DHT22;34804;49.214;12.276;2022-11-15T07:41:59;0.70;94.10
48994;DHT22;34804;49.214;12.276;2022-11-15T07:44:44;0.60;94.00
48994;DHT22;34804;49.214;12.276;2022-11-15T07:47:11;0.60;94.30
48994;DHT22;34804;49.214;12.276;2022-11-15T07:49:38;0.70;94.50
48994;DHT22;34804;49.214;12.276;2022-11-15T07:52:05;0.80;94.40
48994;DHT22;34804;49.214;12.276;2022-11-15T07:54:31;0.90;94.40
48994;DHT22;34804;49.214;12.276;2022-11-15T07:56:58;0.90;94.00
48994;DHT22;34804;49.214;12.276;2022-11-15T07:59:32;0.90;94.00
48994;DHT22;34804;49.214;12.276;2022-11-15T08:01:59;1.00;94.00
48994;DHT22;34804;49.214;12.276;2022-11-15T08:04:26;1.00;94.00
48994;DHT22;34804;49.214;12.276;2022-11-15T08:06:53;1.10;94.00
48994;DHT22;34804;49.214;12.276;2022-11-15T08:09:20;1.20;94.00
48994;DHT22;34804;49.214;12.276;2022-11-15T08:11:47;1.30;94.10
48994;DHT22;34804;49.214;12.276;2022-11-15T08:14:14;1.40;94.20
48994;DHT22;34804;49.214;12.276;2022-11-15T08:16:40;1.60;94.40
48994;DHT22;34804;49.214;12.276;2022-11-15T08:19:07;1.70;94.30
48994;DHT22;34804;49.214;12.276;2022-11-15T08:21:34;1.80;93.50
48994;DHT22;34804;49.214;12.276;2022-11-15T08:24:01;1.80;93.50
48994;DHT22;34804;49.214;12.276;2022-11-15T08:26:28;1.80;93.50
48994;DHT22;34804;49.214;12.276;2022-11-15T08:28:56;2.00;93.80
48994;DHT22;34804;49.214;12.276;2022-11-15T08:31:23;2.10;93.80
48994;DHT22;34804;49.214;12.276;2022-11-15T08:33:50;2.30;93.60
48994;DHT22;34804;49.214;12.276;2022-11-15T08:36:17;2.30;93.60
48994;DHT22;34804;49.214;12.276;2022-11-15T08:38:44;2.50;93.60
48994;DHT22;34804;49.214;12.276;2022-11-15T08:41:36;2.60;93.40
48994;DHT22;34804;49.214;12.276;2022-11-15T08:44:05;2.70;93.00
48994;DHT22;34804;49.214;12.276;2022-11-15T08:46:32;2.90;92.90
48994;DHT22;34804;49.214;12.276;2022-11-15T08:48:58;2.80;91.90
48994;DHT22;34804;49.214;12.276;2022-11-15T08:51:25;2.90;92.30
48994;DHT22;34804;49.214;12.276;2022-11-15T08:53:52;3.00;91.70
48994;DHT22;34804;49.214;12.276;2022-11-15T08:56:19;3.10;91.60
48994;DHT22;34804;49.214;12.276;2022-11-15T08:58:45;3.00;91.00
48994;DHT22;34804;49.214;12.276;2022-11-15T09:01:18;3.10;91.00
48994;DHT22;34804;49.214;12.276;2022-11-15T09:03:45;3.10;90.90
48994;DHT22;34804;49.214;12.276;2022-11-15T09:06:13;3.00;91.00
48994;DHT22;34804;49.214;12.276;2022-11-15T09:08:40;3.00;91.20
48994;DHT22;34804;49.214;12.276;2022-11-15T09:11:15;3.10;91.30
48994;DHT22;34804;49.214;12.276;2022-11-15T09:13:44;3.10;91.50
48994;DHT22;34804;49.214;12.276;2022-11-15T09:16:11;3.20;91.50
48994;DHT22;34804;49.214;12.276;2022-11-15T09:18:39;3.30;91.90
48994;DHT22;34804;49.214;12.276;2022-11-15T09:21:06;3.30;91.70
48994;DHT22;34804;49.214;12.276;2022-11-15T09:23:33;3.50;92.10
48994;DHT22;34804;49.214;12.276;2022-11-15T09:26:01;3.70;92.10
48994;DHT22;34804;49.214;12.276;2022-11-15T09:28:29;3.80;91.80
48994;DHT22;34804;49.214;12.276;2022-11-15T09:31:01;3.90;91.70
48994;DHT22;34804;49.214;12.276;2022-11-15T09:33:29;4.10;91.30
48994;DHT22;34804;49.214;12.276;2022-11-15T09:36:14;4.30;91.20
48994;DHT22;34804;49.214;12.276;2022-11-15T09:38:41;4.50;91.00
48994;DHT22;34804;49.214;12.276;2022-11-15T09:49:32;5.50;91.20
48994;DHT22;34804;49.214;12.276;2022-11-15T09:51:59;5.60;90.10
48994;DHT22;34804;49.214;12.276;2022-11-15T09:54:30;5.80;89.50
48994;DHT22;34804;49.214;12.276;2022-11-15T09:57:44;5.80;89.60
48994;DHT22;34804;49.214;12.276;2022-11-15T10:00:25;6.00;89.40
48994;DHT22;34804;49.214;12.276;2022-11-15T10:03:40;6.30;89.30
48994;DHT22;34804;49.214;12.276;2022-11-15T10:06:14;6.40;88.70
48994;DHT22;34804;49.214;12.276;2022-11-15T10:09:05;6.50;88.30
48994;DHT22;34804;49.214;12.276;2022-11-15T10:11:34;6.70;87.90
48994;DHT22;34804;49.214;12.276;2022-11-15T10:14:36;6.70;87.40
48994;DHT22;34804;49.214;12.276;2022-11-15T10:20:17;6.90;87.70
48994;DHT22;34804;49.214;12.276;2022-11-15T10:23:01;7.20;88.50
48994;DHT22;34804;49.214;12.276;2022-11-15T10:25:33;7.30;87.60
48994;DHT22;34804;49.214;12.276;2022-11-15T10:28:22;7.40;87.20
48994;DHT22;34804;49.214;12.276;2022-11-15T10:30:51;7.50;87.10
48994;DHT22;34804;49.214;12.276;2022-11-15T10:33:32;7.70;86.90
48994;DHT22;34804;49.214;12.276;2022-11-15T10:41:20;8.20;85.40
48994;DHT22;34804;49.214;12.276;2022-11-15T10:44:07;8.30;84.30
48994;DHT22;34804;49.214;12.276;2022-11-15T10:46:37;8.60;84.20
48994;DHT22;34804;49.214;12.276;2022-11-15T10:49:19;8.90;83.40
48994;DHT22;34804;49.214;12.276;2022-11-15T10:54:29;9.20;81.90
48994;DHT22;34804;49.214;12.276;2022-11-15T10:56:59;9.60;80.80
48994;DHT22;34804;49.214;12.276;2022-11-15T10:59:32;9.90;79.90
48994;DHT22;34804;49.214;12.276;2022-11-15T11:02:44;10.20;78.60
48994;DHT22;34804;49.214;12.276;2022-11-15T11:07:58;10.80;77.00
48994;DHT22;34804;49.214;12.276;2022-11-15T11:10:25;11.00;76.30
48994;DHT22;34804;49.214;12.276;2022-11-15T11:13:13;11.20;75.10
48994;DHT22;34804;49.214;12.276;2022-11-15T11:15:43;11.30;76.60
48994;DHT22;34804;49.214;12.276;2022-11-15T11:18:42;11.50;76.80
48994;DHT22;34804;49.214;12.276;2022-11-15T11:21:10;11.50;75.50
48994;DHT22;34804;49.214;12.276;2022-11-15T11:23:53;11.60;75.50
48994;DHT22;34804;49.214;12.276;2022-11-15T11:29:32;12.10;75.50
48994;DHT22;34804;49.214;12.276;2022-11-15T11:32:30;12.30;75.70
48994;DHT22;34804;49.214;12.276;2022-11-15T11:37:52;13.00;72.80
48994;DHT22;34804;49.214;12.276;2022-11-15T11:43:36;13.50;69.10
48994;DHT22;34804;49.214;12.276;2022-11-15T11:48:40;13.70;69.50
48994;DHT22;34804;49.214;12.276;2022-11-15T11:54:04;14.30;65.70
48994;DHT22;34804;49.214;12.276;2022-11-15T11:56:35;14.70;64.50
48994;DHT22;34804;49.214;12.276;2022-11-15T11:59:36;15.10;64.10
48994;DHT22;34804;49.214;12.276;2022-11-15T12:02:39;15.10;63.40
48994;DHT22;34804;49.214;12.276;2022-11-15T12:05:16;15.50;62.00
48994;DHT22;34804;49.214;12.276;2022-11-15T12:07:46;15.60;61.50
48994;DHT22;34804;49.214;12.276;2022-11-15T12:10:24;15.70;61.30
48994;DHT22;34804;49.214;12.276;2022-11-15T12:13:10;15.80;61.20
48994;DHT22;34804;49.214;12.276;2022-11-15T12:16:07;15.40;61.10
48994;DHT22;34804;49.214;12.276;2022-11-15T12:18:37;15.30;62.60
48994;DHT22;34804;49.214;12.276;2022-11-15T12:21:13;15.40;61.70
48994;DHT22;34804;49.214;12.276;2022-11-15T12:23:48;15.90;61.00
48994;DHT22;34804;49.214;12.276;2022-11-15T12:26:23;16.30;59.30
48994;DHT22;34804;49.214;12.276;2022-11-15T12:28:59;16.20;59.80
48994;DHT22;34804;49.214;12.276;2022-11-15T12:34:04;15.80;60.70
48994;DHT22;34804;49.214;12.276;2022-11-15T12:36:43;15.50;62.50
48994;DHT22;34804;49.214;12.276;2022-11-15T12:39:11;16.20;60.60
48994;DHT22;34804;49.214;12.276;2022-11-15T12:41:41;17.00;58.80
48994;DHT22;34804;49.214;12.276;2022-11-15T12:44:15;17.60;56.20
48994;DHT22;34804;49.214;12.276;2022-11-15T12:47:21;18.30;54.90
48994;DHT22;34804;49.214;12.276;2022-11-15T12:49:49;18.60;53.80
48994;DHT22;34804;49.214;12.276;2022-11-15T12:52:16;18.80;52.90
48994;DHT22;34804;49.214;12.276;2022-11-15T12:54:52;18.80;52.30
48994;DHT22;34804;49.214;12.276;2022-11-15T13:03:17;19.30;52.80
48994;DHT22;34804;49.214;12.276;2022-11-15T13:08:38;19.30;52.00
48994;DHT22;34804;49.214;12.276;2022-11-15T13:19:48;18.60;53.40
48994;DHT22;34804;49.214;12.276;2022-11-15T13:22:18;18.50;54.20
48994;DHT22;34804;49.214;12.276;2022-11-15T13:25:15;18.70;52.90
48994;DHT22;34804;49.214;12.276;2022-11-15T13:27:42;18.50;54.70
48994;DHT22;34804;49.214;12.276;2022-11-15T13:30:18;18.30;55.60
48994;DHT22;34804;49.214;12.276;2022-11-15T13:32:46;18.20;53.90
48994;DHT22;34804;49.214;12.276;2022-11-15T13:35:23;18.10;54.90
48994;DHT22;34804;49.214;12.276;2022-11-15T13:37:52;18.20;53.80
48994;DHT22;34804;49.214;12.276;2022-11-15T13:40:34;17.90;56.40
48994;DHT22;34804;49.214;12.276;2022-11-15T13:43:26;17.80;55.90
48994;DHT22;34804;49.214;12.276;2022-11-15T13:46:11;17.90;57.00
48994;DHT22;34804;49.214;12.276;2022-11-15T13:48:41;17.80;57.00
48994;DHT22;34804;49.214;12.276;2022-11-15T13:53:44;17.80;59.70
48994;DHT22;34804;49.214;12.276;2022-11-15T13:56:15;17.90;56.30
48994;DHT22;34804;49.214;12.276;2022-11-15T13:58:43;18.30;54.70
48994;DHT22;34804;49.214;12.276;2022-11-15T14:01:18;18.50;54.60
48994;DHT22;34804;49.214;12.276;2022-11-15T14:03:51;18.50;53.60
48994;DHT22;34804;49.214;12.276;2022-11-15T14:06:20;18.80;52.60
48994;DHT22;34804;49.214;12.276;2022-11-15T14:11:28;18.80;50.90
48994;DHT22;34804;49.214;12.276;2022-11-15T14:16:42;18.80;51.70
48994;DHT22;34804;49.214;12.276;2022-11-15T14:19:12;18.70;52.00
48994;DHT22;34804;49.214;12.276;2022-11-15T14:22:12;18.50;52.00
48994;DHT22;34804;49.214;12.276;2022-11-15T14:24:41;18.40;52.40
48994;DHT22;34804;49.214;12.276;2022-11-15T14:27:28;18.30;52.40
48994;DHT22;34804;49.214;12.276;2022-11-15T14:29:55;17.50;54.60
48994;DHT22;34804;49.214;12.276;2022-11-15T14:32:24;17.30;54.80
48994;DHT22;34804;49.214;12.276;2022-11-15T14:35:00;17.20;55.70
48994;DHT22;34804;49.214;12.276;2022-11-15T14:37:32;16.80;55.40
48994;DHT22;34804;49.214;12.276;2022-11-15T14:40:03;16.30;57.30
48994;DHT22;34804;49.214;12.276;2022-11-15T14:42:31;16.00;58.00
48994;DHT22;34804;49.214;12.276;2022-11-15T14:44:58;15.40;59.80
48994;DHT22;34804;49.214;12.276;2022-11-15T14:47:25;15.00;60.70
48994;DHT22;34804;49.214;12.276;2022-11-15T14:49:51;14.50;62.30
48994;DHT22;34804;49.214;12.276;2022-11-15T14:52:30;14.10;63.50
48994;DHT22;34804;49.214;12.276;2022-11-15T14:55:02;13.60;65.30
48994;DHT22;34804;49.214;12.276;2022-11-15T14:57:30;13.10;67.00
48994;DHT22;34804;49.214;12.276;2022-11-15T14:59:58;12.60;68.40
48994;DHT22;34804;49.214;12.276;2022-11-15T15:02:26;12.30;69.80
48994;DHT22;34804;49.214;12.276;2022-11-15T15:04:54;12.00;71.10
48994;DHT22;34804;49.214;12.276;2022-11-15T15:07:22;11.80;72.10
48994;DHT22;34804;49.214;12.276;2022-11-15T15:09:49;11.60;72.70
48994;DHT22;34804;49.214;12.276;2022-11-15T15:12:22;11.40;73.00
48994;DHT22;34804;49.214;12.276;2022-11-15T15:14:50;11.20;73.40
48994;DHT22;34804;49.214;12.276;2022-11-15T15:17:17;10.90;73.90
48994;DHT22;34804;49.214;12.276;2022-11-15T15:19:44;10.60;75.10
48994;DHT22;34804;49.214;12.276;2022-11-15T15:22:18;10.40;75.30
48994;DHT22;34804;49.214;12.276;2022-11-15T15:24:46;10.20;76.00
48994;DHT22;34804;49.214;12.276;2022-11-15T15:27:13;10.00;76.70
48994;DHT22;34804;49.214;12.276;2022-11-15T15:29:40;9.80;77.30
48994;DHT22;34804;49.214;12.276;2022-11-15T15:32:08;9.50;77.90
48994;DHT22;34804;49.214;12.276;2022-11-15T15:34:35;9.40;78.20
48994;DHT22;34804;49.214;12.276;2022-11-15T15:37:24;9.10;79.30
48994;DHT22;34804;49.214;12.276;2022-11-15T15:39:52;8.90;80.00
48994;DHT22;34804;49.214;12.276;2022-11-15T15:42:20;8.80;80.50
48994;DHT22;34804;49.214;12.276;2022-11-15T15:44:48;8.60;80.70
48994;DHT22;34804;49.214;12.276;2022-11-15T15:47:18;8.40;80.90
48994;DHT22;34804;49.214;12.276;2022-11-15T15:49:46;8.20;81.40
48994;DHT22;34804;49.214;12.276;2022-11-15T15:52:13;8.10;82.00
48994;DHT22;34804;49.214;12.276;2022-11-15T15:54:40;8.00;82.20
48994;DHT22;34804;49.214;12.276;2022-11-15T15:57:08;7.90;82.30
48994;DHT22;34804;49.214;12.276;2022-11-15T15:59:37;7.80;82.60
48994;DHT22;34804;49.214;12.276;2022-11-15T16:02:05;7.80;82.80
48994;DHT22;34804;49.214;12.276;2022-11-15T16:04:32;7.60;82.60
48994;DHT22;34804;49.214;12.276;2022-11-15T16:07:00;7.40;82.80
48994;DHT22;34804;49.214;12.276;2022-11-15T16:09:27;7.30;83.40
48994;DHT22;34804;49.214;12.276;2022-11-15T16:12:13;7.20;83.70
48994;DHT22;34804;49.214;12.276;2022-11-15T16:14:40;7.10;83.80
48994;DHT22;34804;49.214;12.276;2022-11-15T16:17:53;6.90;83.70
48994;DHT22;34804;49.214;12.276;2022-11-15T16:20:00;6.80;84.20
48994;DHT22;34804;49.214;12.276;2022-11-15T16:22:28;6.80;84.90
48994;DHT22;34804;49.214;12.276;2022-11-15T16:24:56;6.80;85.20
48994;DHT22;34804;49.214;12.276;2022-11-15T16:27:23;6.70;84.90
48994;DHT22;34804;49.214;12.276;2022-11-15T16:29:50;6.60;85.30
48994;DHT22;34804;49.214;12.276;2022-11-15T16:32:16;6.40;84.90
48994;DHT22;34804;49.214;12.276;2022-11-15T16:34:43;6.40;85.30
48994;DHT22;34804;49.214;12.276;2022-11-15T16:37:24;6.40;85.60
48994;DHT22;34804;49.214;12.276;2022-11-15T16:39:50;6.30;85.60
48994;DHT22;34804;49.214;12.276;2022-11-15T16:42:23;6.30;85.70
48994;DHT22;34804;49.214;12.276;2022-11-15T16:44:50;6.20;85.60
48994;DHT22;34804;49.214;12.276;2022-11-15T16:47:18;6.00;85.10
48994;DHT22;34804;49.214;12.276;2022-11-15T16:49:48;5.90;85.70
48994;DHT22;34804;49.214;12.276;2022-11-15T16:52:15;5.80;85.80
48994;DHT22;34804;49.214;12.276;2022-11-15T16:54:47;5.70;85.90
48994;DHT22;34804;49.214;12.276;2022-11-15T16:57:14;5.60;85.80
48994;DHT22;34804;49.214;12.276;2022-11-15T16:59:42;5.60;86.30
48994;DHT22;34804;49.214;12.276;2022-11-15T17:02:12;5.40;86.00
48994;DHT22;34804;49.214;12.276;2022-11-15T17:04:39;5.30;86.60
48994;DHT22;34804;49.214;12.276;2022-11-15T17:07:06;5.30;87.10
48994;DHT22;34804;49.214;12.276;2022-11-15T17:09:33;5.30;87.10
48994;DHT22;34804;49.214;12.276;2022-11-15T17:12:00;5.30;87.70
48994;DHT22;34804;49.214;12.276;2022-11-15T17:14:27;5.30;87.90
48994;DHT22;34804;49.214;12.276;2022-11-15T17:16:54;5.40;88.00
48994;DHT22;34804;49.214;12.276;2022-11-15T17:19:21;5.30;87.90
48994;DHT22;34804;49.214;12.276;2022-11-15T17:21:48;5.40;87.80